Montalban, Spain
Current Conditions -  °F | °C
As of 1:30 AM on Thursday 23 Oct 2014 (Local Time) from LETL Reporting Station
Clear Clear  
Wind Chill: 40°   Ceiling: Unl
Heat Index: 45°   Visibility: 6mi
Dew Point: 18°   Wind: 8mph
Humidity: 34%   Direction: 280°W
Pressure: 30.36"   Gusts: NA
Location:  40.83°N, 0.8°W
Report Text: LETL 222330Z AUTO 28007KT 260V320 CAVOK 07/M08 Q1028
Loading
Personal Weather Stations






























Interactive Weather Map
Tropical Storm Tracking
New forecast layout! Learn more

10-Day Weather Forecast

Advertisements
Track Severe Weather on mobile